Time;durP1;ratioP1;P1;durP2;ratioP2;P2;SDS_P1;SDS_P2;PMS_P1;PMS_P2;Temp;Humidity;BMP_temperature;BMP_pressure;BME280_temperature;BME280_humidity;BME280_pressure;Samples;Min_cycle;Max_cycle;Signal;HPM_P1;HPM_P2
2022/06/10 00:03:57;;;;;;;3.40;2.30;;;25.30;64.00;;;;;;219828;1270;24215;-49
2022/06/10 00:09:18;;;;;;;5.40;2.40;;;25.40;63.80;;;;;;219782;1271;25354;-49
2022/06/10 00:14:28;;;;;;;8.50;3.30;;;25.40;64.30;;;;;;220045;1270;25337;-49
2022/06/10 00:19:42;;;;;;;6.00;2.90;;;25.40;66.30;;;;;;219467;1273;22852;-51
2022/06/10 00:24:58;;;;;;;5.00;2.60;;;25.40;65.30;;;;;;219659;1273;23923;-48
2022/06/10 00:30:01;;;;;;;7.10;2.30;;;25.40;65.90;;;;;;219858;1271;25336;-51
2022/06/10 00:35:04;;;;;;;5.50;3.10;;;25.40;66.10;;;;;;219578;1272;25197;-49
2022/06/10 00:40:13;;;;;;;9.10;2.80;;;25.40;66.50;;;;;;219668;1273;25443;-50
2022/06/10 00:45:50;;;;;;;4.40;2.50;;;25.40;67.30;;;;;;219975;1270;22547;-51
2022/06/10 00:50:53;;;;;;;4.30;2.30;;;25.40;67.10;;;;;;219683;1271;25414;-49
2022/06/10 00:55:57;;;;;;;5.60;3.10;;;25.40;67.60;;;;;;219650;1271;25486;-46
2022/06/10 01:01:01;;;;;;;6.20;3.10;;;25.40;67.20;;;;;;219546;1273;25147;-49
2022/06/10 01:06:04;;;;;;;5.70;2.80;;;25.40;68.20;;;;;;219903;1272;22714;-51
2022/06/10 01:11:35;;;;;;;6.30;3.00;;;25.50;68.20;;;;;;219327;1273;22590;-51
2022/06/10 01:16:50;;;;;;;4.10;2.50;;;25.50;68.30;;;;;;219229;1273;25328;-51
2022/06/10 01:22:25;;;;;;;6.30;2.90;;;25.50;68.80;;;;;;225306;1271;533281;-52
2022/06/10 01:27:49;;;;;;;10.50;3.90;;;25.50;68.90;;;;;;219401;1271;22698;-49
2022/06/10 01:33:21;;;;;;;6.80;3.00;;;25.50;68.60;;;;;;219108;1273;22594;-52
2022/06/10 01:38:46;;;;;;;12.20;4.10;;;25.50;68.90;;;;;;219493;1271;23646;-49
2022/06/10 01:43:57;;;;;;;5.30;2.60;;;25.60;69.10;;;;;;219758;1271;24403;-48
2022/06/10 01:49:18;;;;;;;5.00;2.90;;;25.50;68.70;;;;;;219784;1271;22855;-49
2022/06/10 01:54:33;;;;;;;7.60;3.30;;;25.50;69.10;;;;;;219808;1271;23957;-49
2022/06/10 01:59:55;;;;;;;5.30;2.50;;;25.50;69.40;;;;;;220132;1271;24177;-52
2022/06/10 02:05:09;;;;;;;5.00;2.90;;;25.50;69.20;;;;;;220394;1271;22586;-51
2022/06/10 02:10:26;;;;;;;14.70;4.10;;;25.50;69.20;;;;;;219710;1273;22844;-49
2022/06/10 02:15:41;;;;;;;5.90;2.50;;;25.50;69.30;;;;;;219976;1270;22581;-49
2022/06/10 02:20:55;;;;;;;6.10;3.10;;;25.50;69.60;;;;;;219838;1271;23672;-52
2022/06/10 02:25:59;;;;;;;5.80;2.60;;;25.50;69.70;;;;;;219541;1271;22544;-51
2022/06/10 02:31:12;;;;;;;8.70;2.70;;;25.50;69.60;;;;;;219290;1272;23989;-49
2022/06/10 02:36:28;;;;;;;3.60;2.50;;;25.50;69.70;;;;;;224231;1271;23959;-47
2022/06/10 02:41:36;;;;;;;4.70;2.50;;;25.40;70.10;;;;;;219441;1271;22570;-51
2022/06/10 02:46:44;;;;;;;6.00;2.20;;;25.40;69.90;;;;;;219894;1271;22693;-50
2022/06/10 02:51:48;;;;;;;4.50;2.50;;;25.50;69.90;;;;;;219880;1271;25333;-49
2022/06/10 02:56:50;;;;;;;8.40;2.90;;;25.50;70.40;;;;;;219789;1271;24239;-50
2022/06/10 03:02:07;;;;;;;11.40;3.20;;;25.40;70.20;;;;;;219579;1271;25004;-48
2022/06/10 03:07:37;;;;;;;5.40;2.50;;;25.40;70.10;;;;;;219991;1271;23952;-49
2022/06/10 03:13:18;;;;;;;5.00;2.40;;;25.40;70.50;;;;;;219844;1272;24291;-52
2022/06/10 03:18:26;;;;;;;6.30;2.90;;;25.40;70.20;;;;;;219267;1271;22565;-48
2022/06/10 03:23:29;;;;;;;7.40;2.80;;;25.40;70.20;;;;;;219573;1271;25382;-47
2022/06/10 03:29:00;;;;;;;11.00;2.70;;;25.40;70.10;;;;;;219841;1272;22568;-47
2022/06/10 03:34:29;;;;;;;3.40;2.00;;;25.40;70.20;;;;;;219617;1271;22548;-49
2022/06/10 03:39:31;;;;;;;3.50;2.10;;;25.40;70.30;;;;;;219414;1271;24278;-52
2022/06/10 03:44:34;;;;;;;4.90;2.30;;;25.30;70.20;;;;;;219896;1271;22572;-47
2022/06/10 03:50:06;;;;;;;4.30;2.60;;;25.30;70.20;;;;;;220007;1272;24073;-51
2022/06/10 03:55:10;;;;;;;4.30;2.30;;;25.30;70.60;;;;;;219866;1271;22541;-50
2022/06/10 04:00:23;;;;;;;4.50;2.00;;;25.40;70.30;;;;;;219749;1271;22677;-50
2022/06/10 04:05:26;;;;;;;7.40;2.90;;;25.30;70.30;;;;;;220013;1272;22567;-50
2022/06/10 04:10:32;;;;;;;4.30;2.30;;;25.40;70.30;;;;;;219725;1271;25358;-50
2022/06/10 04:15:35;;;;;;;3.60;2.10;;;25.30;70.30;;;;;;219593;1271;24234;-51
2022/06/10 04:20:39;;;;;;;3.30;1.90;;;25.30;70.20;;;;;;219601;1271;24307;-49
2022/06/10 04:25:43;;;;;;;5.50;2.30;;;25.30;70.70;;;;;;219466;1274;23992;-48
2022/06/10 04:30:49;;;;;;;8.70;2.90;;;25.30;70.50;;;;;;219523;1275;22720;-50
2022/06/10 04:35:51;;;;;;;7.10;2.90;;;25.30;70.10;;;;;;219569;1274;22706;-49
2022/06/10 04:40:54;;;;;;;10.40;3.40;;;25.30;70.10;;;;;;220000;1271;24234;-50
2022/06/10 04:45:57;;;;;;;4.50;2.30;;;25.30;69.90;;;;;;219759;1271;24271;-51
2022/06/10 04:51:00;;;;;;;11.90;3.80;;;25.30;70.30;;;;;;219743;1275;22587;-48
2022/06/10 04:56:03;;;;;;;3.60;2.40;;;25.30;70.00;;;;;;219614;1271;22545;-51
2022/06/10 05:01:05;;;;;;;3.50;2.40;;;25.30;70.00;;;;;;219636;1274;24341;-51
2022/06/10 05:06:09;;;;;;;6.60;2.20;;;25.30;69.80;;;;;;220003;1274;25279;-49
2022/06/10 05:11:14;;;;;;;7.30;2.90;;;25.30;69.60;;;;;;219928;1271;24381;-48
2022/06/10 05:16:16;;;;;;;6.70;2.30;;;25.30;69.80;;;;;;219715;1272;26842;-49
2022/06/10 05:21:18;;;;;;;6.50;2.80;;;25.30;69.80;;;;;;219764;1271;23921;-51
2022/06/10 05:26:21;;;;;;;4.20;2.20;;;25.30;70.00;;;;;;219661;1274;22575;-49
2022/06/10 05:31:26;;;;;;;4.10;2.00;;;25.30;69.60;;;;;;219621;1273;22580;-49
2022/06/10 05:36:29;;;;;;;5.40;2.20;;;25.30;69.60;;;;;;219826;1271;25430;-49
2022/06/10 05:46:53;;;;;;;3.20;2.10;;;25.30;69.50;;;;;;219586;1271;22569;-50
2022/06/10 05:51:56;;;;;;;5.60;2.40;;;25.30;69.40;;;;;;219694;1270;24317;-53
2022/06/10 05:56:58;;;;;;;7.30;2.50;;;25.40;69.80;;;;;;219536;1271;22544;-49
2022/06/10 06:02:03;;;;;;;7.30;2.60;;;25.40;69.60;;;;;;219733;1271;22541;-51
2022/06/10 06:07:07;;;;;;;3.00;1.80;;;25.40;69.40;;;;;;219787;1274;24784;-53
2022/06/10 06:12:10;;;;;;;3.70;2.00;;;25.40;69.30;;;;;;219871;1270;22558;-53
2022/06/10 06:17:14;;;;;;;5.20;1.90;;;25.40;69.30;;;;;;219831;1271;25273;-53
2022/06/10 06:22:20;;;;;;;8.10;2.30;;;25.50;69.40;;;;;;219680;1271;25517;-53
2022/06/10 06:27:23;;;;;;;3.40;1.80;;;25.50;69.10;;;;;;219906;1272;22558;-53
2022/06/10 06:32:25;;;;;;;12.30;2.30;;;25.50;68.50;;;;;;219899;1270;24303;-54
2022/06/10 06:37:28;;;;;;;7.60;2.20;;;25.60;68.50;;;;;;221007;1271;24312;-57
2022/06/10 06:42:30;;;;;;;5.50;2.10;;;25.70;68.00;;;;;;219901;1270;23253;-57
2022/06/10 06:47:33;;;;;;;8.80;2.10;;;25.60;68.10;;;;;;219505;1270;22715;-56
2022/06/10 06:52:37;;;;;;;6.40;1.90;;;25.50;67.20;;;;;;220810;1270;25374;-57
2022/06/10 06:57:44;;;;;;;8.70;2.20;;;25.50;66.90;;;;;;219920;1271;24368;-57
2022/06/10 07:02:46;;;;;;;6.80;2.20;;;25.60;66.70;;;;;;220215;1271;22555;-61
2022/06/10 07:07:49;;;;;;;7.10;2.50;;;25.60;66.50;;;;;;220248;1272;22656;-58
2022/06/10 07:12:52;;;;;;;7.40;2.90;;;25.60;66.70;;;;;;219909;1270;24387;-58
2022/06/10 07:17:55;;;;;;;4.30;2.00;;;25.60;66.90;;;;;;220146;1272;22567;-58
2022/06/10 07:22:59;;;;;;;6.10;2.30;;;25.60;66.60;;;;;;220153;1271;23042;-57
2022/06/10 07:28:01;;;;;;;10.90;2.40;;;25.60;66.10;;;;;;219995;1270;22704;-57
2022/06/10 07:33:04;;;;;;;8.30;2.80;;;25.60;65.50;;;;;;220013;1270;22708;-57
2022/06/10 07:38:08;;;;;;;5.80;2.30;;;25.60;65.90;;;;;;220003;1270;24419;-58
2022/06/10 07:43:12;;;;;;;5.60;2.50;;;25.60;65.80;;;;;;220267;1270;22537;-56
2022/06/10 07:48:19;;;;;;;3.90;1.90;;;25.70;65.00;;;;;;220089;1270;25361;-56
2022/06/10 07:53:21;;;;;;;4.00;2.00;;;25.70;65.70;;;;;;219910;1270;24312;-56
2022/06/10 07:58:25;;;;;;;10.20;2.20;;;25.70;65.40;;;;;;219789;1270;24222;-57
2022/06/10 08:03:29;;;;;;;4.20;2.30;;;25.70;65.40;;;;;;220102;1270;24231;-57
2022/06/10 08:08:32;;;;;;;4.80;1.90;;;25.70;65.10;;;;;;219947;1271;22719;-57
2022/06/10 08:13:35;;;;;;;3.00;1.90;;;25.70;64.60;;;;;;219766;1272;22552;-56
2022/06/10 08:18:37;;;;;;;4.60;2.20;;;25.70;64.50;;;;;;219925;1271;22567;-55
2022/06/10 08:23:41;;;;;;;3.10;1.90;;;25.60;63.60;;;;;;220188;1271;24387;-59
2022/06/10 08:28:45;;;;;;;6.40;2.10;;;25.70;62.40;;;;;;220129;1270;24172;-56
2022/06/10 08:33:48;;;;;;;4.00;1.80;;;25.60;62.10;;;;;;220195;1270;24479;-56
2022/06/10 08:38:58;;;;;;;2.90;1.80;;;25.70;61.80;;;;;;220248;1270;25265;-55
2022/06/10 08:44:21;;;;;;;6.40;2.00;;;25.70;61.90;;;;;;220114;1270;26365;-57
2022/06/10 08:49:52;;;;;;;3.80;1.80;;;25.70;62.00;;;;;;219988;1271;24406;-57
2022/06/10 08:55:18;;;;;;;5.80;2.30;;;25.70;61.70;;;;;;220005;1270;22569;-59
2022/06/10 09:00:28;;;;;;;5.40;2.40;;;25.80;61.70;;;;;;219973;1271;23951;-56
2022/06/10 09:05:45;;;;;;;6.90;2.50;;;25.80;62.60;;;;;;219895;1270;22679;-56
2022/06/10 09:10:55;;;;;;;8.20;3.00;;;25.70;61.60;;;;;;220070;1270;24419;-55
2022/06/10 09:16:03;;;;;;;14.50;3.40;;;25.50;57.90;;;;;;220069;1270;22564;-56
2022/06/10 09:21:28;;;;;;;14.10;2.50;;;25.30;56.90;;;;;;219976;1270;22556;-55
2022/06/10 09:26:55;;;;;;;6.10;2.80;;;25.20;57.10;;;;;;220063;1270;25491;-57
2022/06/10 09:32:09;;;;;;;6.30;2.80;;;25.10;57.00;;;;;;219759;1270;25475;-54
2022/06/10 09:37:23;;;;;;;6.40;2.40;;;25.10;56.40;;;;;;221980;1270;23976;-56
2022/06/10 09:43:14;;;;;;;7.30;2.90;;;25.10;56.30;;;;;;221029;1271;24339;-55
2022/06/10 09:48:58;;;;;;;4.20;2.80;;;25.00;55.20;;;;;;219616;1270;24471;-57
2022/06/10 09:54:22;;;;;;;4.20;2.60;;;24.90;55.30;;;;;;219937;1270;22585;-57
2022/06/10 09:59:39;;;;;;;3.70;2.50;;;25.00;55.20;;;;;;219850;1270;22541;-57
2022/06/10 10:05:10;;;;;;;5.00;2.70;;;24.90;54.50;;;;;;220120;1270;25340;-54
2022/06/10 10:10:33;;;;;;;3.20;2.20;;;24.90;54.20;;;;;;219984;1270;24101;-56
2022/06/10 10:16:15;;;;;;;2.80;1.90;;;24.80;53.00;;;;;;219690;1271;25415;-56
2022/06/10 10:21:36;;;;;;;8.50;2.40;;;24.90;53.80;;;;;;220203;1270;22718;-57
2022/06/10 10:26:41;;;;;;;4.30;2.20;;;24.80;53.10;;;;;;220265;1270;25338;-57
2022/06/10 10:32:25;;;;;;;3.80;1.90;;;24.70;52.60;;;;;;220121;1270;22663;-57
2022/06/10 10:37:32;;;;;;;5.70;2.20;;;24.70;52.40;;;;;;219044;1276;22573;-59
2022/06/10 10:42:41;;;;;;;4.40;2.10;;;24.80;52.80;;;;;;219846;1271;24248;-58
2022/06/10 10:47:50;;;;;;;7.40;2.10;;;24.90;53.50;;;;;;219919;1271;24326;-57
2022/06/10 10:52:53;;;;;;;5.60;2.00;;;24.90;53.90;;;;;;220150;1271;24451;-57
2022/06/10 10:58:17;;;;;;;2.80;1.80;;;25.00;53.70;;;;;;220201;1270;25715;-56
2022/06/10 11:03:34;;;;;;;4.10;2.20;;;25.10;52.50;;;;;;219976;1271;22846;-57
2022/06/10 11:08:39;;;;;;;5.00;2.50;;;25.20;52.80;;;;;;219946;1270;25360;-57
2022/06/10 11:13:48;;;;;;;6.40;2.40;;;25.30;53.60;;;;;;220149;1270;25235;-57
2022/06/10 11:18:54;;;;;;;6.70;2.30;;;25.30;53.60;;;;;;220032;1270;22577;-58
2022/06/10 11:23:58;;;;;;;4.90;2.50;;;25.30;53.60;;;;;;220387;1270;24266;-59
2022/06/10 11:29:04;;;;;;;5.30;2.30;;;25.20;53.90;;;;;;219846;1270;24368;-59
2022/06/10 11:34:18;;;;;;;3.60;1.80;;;25.30;54.30;;;;;;220074;1270;24235;-59
2022/06/10 11:39:27;;;;;;;2.80;1.50;;;25.20;53.70;;;;;;219961;1270;22703;-55
2022/06/10 11:44:32;;;;;;;2.60;1.50;;;25.20;53.10;;;;;;219862;1271;22557;-59
2022/06/10 11:49:43;;;;;;;3.40;1.50;;;25.20;52.70;;;;;;220088;1270;24409;-57
2022/06/10 11:54:56;;;;;;;2.60;1.50;;;25.20;51.80;;;;;;220018;1270;22550;-60
2022/06/10 12:00:22;;;;;;;5.00;1.40;;;25.20;51.00;;;;;;220257;1270;22587;-54
2022/06/10 12:05:45;;;;;;;4.10;1.40;;;25.20;49.80;;;;;;220023;1270;23945;-50
2022/06/10 12:11:02;;;;;;;4.50;1.70;;;25.20;49.70;;;;;;220040;1270;22538;-49
2022/06/10 12:16:06;;;;;;;8.60;2.10;;;25.30;48.80;;;;;;219788;1270;25513;-51
2022/06/10 12:21:17;;;;;;;10.50;2.40;;;25.50;48.40;;;;;;219762;1270;24325;-48
2022/06/10 12:26:46;;;;;;;3.80;1.60;;;25.60;49.00;;;;;;220054;1269;22572;-50
2022/06/10 12:31:52;;;;;;;3.30;1.40;;;25.60;49.30;;;;;;219683;1270;24347;-49
2022/06/10 12:37:07;;;;;;;4.10;1.30;;;25.70;47.50;;;;;;219845;1270;23962;-50
2022/06/10 12:42:32;;;;;;;8.40;1.60;;;25.70;49.40;;;;;;219817;1270;23714;-48
2022/06/10 12:47:38;;;;;;;5.00;1.60;;;25.70;48.90;;;;;;219878;1270;25343;-51
2022/06/10 12:53:02;;;;;;;3.80;1.20;;;25.70;48.90;;;;;;220038;1270;22541;-48
2022/06/10 12:58:04;;;;;;;3.10;1.30;;;25.70;49.60;;;;;;219868;1271;24184;-51
2022/06/10 13:03:15;;;;;;;5.20;1.10;;;25.70;47.80;;;;;;219837;1271;22566;-46
2022/06/10 13:08:50;;;;;;;4.60;1.60;;;25.70;47.80;;;;;;219830;1270;25316;-53
2022/06/10 13:14:25;;;;;;;4.20;1.50;;;25.80;46.60;;;;;;219833;1271;23212;-49
2022/06/10 13:19:43;;;;;;;4.10;1.30;;;25.80;47.70;;;;;;219395;1270;494874;-48
2022/06/10 13:24:52;;;;;;;4.90;1.30;;;25.80;48.50;;;;;;220099;1270;25552;-49
2022/06/10 13:29:58;;;;;;;2.00;1.10;;;25.80;46.70;;;;;;219850;1270;22542;-52
2022/06/10 13:35:03;;;;;;;2.70;1.30;;;25.80;46.30;;;;;;219903;1270;22538;-50
2022/06/10 13:40:21;;;;;;;4.60;1.30;;;25.80;46.50;;;;;;220067;1270;25388;-49
2022/06/10 13:45:39;;;;;;;;;;;25.80;47.50;;;;;;219717;1269;25255;-49
2022/06/10 13:56:01;;;;;;;3.60;1.40;;;25.90;47.30;;;;;;219904;1270;22583;-49
2022/06/10 14:01:17;;;;;;;4.80;1.30;;;25.90;46.50;;;;;;220948;1270;25437;-50
2022/06/10 14:06:29;;;;;;;2.90;1.20;;;25.80;47.80;;;;;;219855;1270;22770;-49
2022/06/10 14:11:36;;;;;;;6.00;1.30;;;25.80;47.70;;;;;;220140;1270;22836;-48
2022/06/10 14:16:39;;;;;;;6.80;1.70;;;25.80;48.10;;;;;;220077;1270;25383;-50
2022/06/10 14:21:43;;;;;;;3.40;1.50;;;25.80;48.80;;;;;;220212;1271;24285;-49
2022/06/10 14:26:59;;;;;;;8.20;1.60;;;25.80;47.60;;;;;;219740;1270;22542;-50
2022/06/10 14:32:32;;;;;;;3.20;1.20;;;25.80;47.40;;;;;;220195;1270;22602;-48
2022/06/10 14:38:13;;;;;;;8.10;1.50;;;25.80;48.80;;;;;;219937;1270;22709;-49
2022/06/10 14:43:22;;;;;;;8.50;1.90;;;25.80;47.50;;;;;;220001;1270;22560;-49
2022/06/10 14:48:37;;;;;;;5.90;1.80;;;25.80;47.80;;;;;;220138;1270;25382;-48
2022/06/10 14:53:48;;;;;;;7.10;2.10;;;25.80;49.50;;;;;;219936;1270;22541;-47
2022/06/10 14:58:51;;;;;;;5.20;1.40;;;25.80;48.40;;;;;;220142;1270;25425;-47
2022/06/10 15:03:58;;;;;;;3.50;1.20;;;25.80;49.20;;;;;;220154;1270;23069;-50
2022/06/10 15:09:16;;;;;;;9.40;1.60;;;25.80;48.70;;;;;;220087;1270;24467;-46
2022/06/10 15:14:23;;;;;;;8.60;2.30;;;25.80;48.50;;;;;;219971;1270;25350;-49
2022/06/10 15:19:30;;;;;;;6.90;1.40;;;25.80;45.80;;;;;;220201;1270;22698;-49
2022/06/10 15:24:33;;;;;;;11.10;1.80;;;25.90;48.50;;;;;;220072;1270;24319;-47
2022/06/10 15:29:41;;;;;;;12.20;2.90;;;25.90;48.50;;;;;;219845;1271;24320;-49
2022/06/10 15:45:49;;;;;;;5.90;1.60;;;26.00;50.40;;;;;;220004;1271;22597;-53
2022/06/10 15:50:59;;;;;;;11.10;2.00;;;26.00;48.30;;;;;;219897;1271;24513;-51
2022/06/10 16:01:37;;;;;;;6.20;1.40;;;26.00;47.40;;;;;;219699;1271;25473;-50
2022/06/10 16:06:53;;;;;;;8.80;2.00;;;26.00;47.30;;;;;;219978;1271;24323;-49
2022/06/10 16:17:56;;;;;;;10.20;2.10;;;26.00;48.30;;;;;;219818;1270;24239;-51
2022/06/10 16:23:39;;;;;;;14.90;3.00;;;25.70;46.10;;;;;;219779;1270;22705;-51
2022/06/10 16:28:54;;;;;;;11.70;2.30;;;25.70;43.80;;;;;;219742;1271;24298;-51
2022/06/10 16:34:26;;;;;;;3.10;1.30;;;25.90;44.30;;;;;;219959;1270;22816;-49
2022/06/10 16:39:34;;;;;;;8.20;1.90;;;25.90;42.60;;;;;;220091;1271;24293;-49
2022/06/10 16:44:49;;;;;;;12.90;2.40;;;25.90;42.40;;;;;;219697;1272;22838;-48
2022/06/10 16:50:18;;;;;;;6.00;1.90;;;25.90;43.30;;;;;;219529;1273;25304;-50
2022/06/10 16:55:42;;;;;;;6.30;1.60;;;25.90;43.50;;;;;;219614;1270;24236;-48
2022/06/10 17:00:51;;;;;;;4.40;1.40;;;25.90;44.50;;;;;;219492;1270;22560;-51
2022/06/10 17:05:56;;;;;;;4.80;1.60;;;25.90;44.20;;;;;;219898;1270;22537;-49
2022/06/10 17:11:23;;;;;;;7.60;1.60;;;25.90;44.80;;;;;;219795;1272;24211;-50
2022/06/10 17:16:41;;;;;;;5.60;1.60;;;25.80;44.10;;;;;;219412;1273;25372;-49
2022/06/10 17:21:55;;;;;;;3.50;1.50;;;25.90;44.70;;;;;;220151;1271;22557;-50
2022/06/10 17:26:57;;;;;;;5.70;1.40;;;25.90;44.80;;;;;;219810;1273;22617;-55
2022/06/10 17:32:03;;;;;;;3.80;1.30;;;25.80;45.70;;;;;;219934;1271;24362;-50
2022/06/10 17:37:16;;;;;;;9.50;1.90;;;25.80;44.80;;;;;;220120;1270;25481;-53
2022/06/10 17:42:25;;;;;;;19.10;2.80;;;25.80;44.80;;;;;;220055;1272;22710;-52
2022/06/10 17:47:30;;;;;;;4.30;1.40;;;25.70;44.30;;;;;;220129;1270;22779;-48
2022/06/10 17:52:33;;;;;;;3.30;1.20;;;25.70;44.60;;;;;;220187;1270;26597;-48
2022/06/10 17:57:56;;;;;;;3.10;1.50;;;25.70;43.30;;;;;;220189;1270;24346;-56
2022/06/10 18:03:20;;;;;;;4.50;1.50;;;25.70;43.40;;;;;;220241;1270;22563;-58
2022/06/10 18:08:30;;;;;;;3.10;1.30;;;25.70;43.90;;;;;;220087;1270;22542;-49
2022/06/10 18:19:06;;;;;;;2.10;1.00;;;25.60;43.90;;;;;;220027;1271;22558;-49
2022/06/10 18:24:14;;;;;;;7.10;1.50;;;25.60;44.00;;;;;;219923;1273;22553;-49
2022/06/10 18:29:54;;;;;;;4.80;1.50;;;25.60;43.90;;;;;;220019;1270;24448;-50
2022/06/10 18:35:22;;;;;;;6.70;1.60;;;25.60;44.50;;;;;;220081;1270;25546;-50
2022/06/10 18:40:46;;;;;;;4.90;1.30;;;25.60;44.70;;;;;;220132;1270;22552;-48
2022/06/10 18:45:49;;;;;;;15.90;2.50;;;25.60;45.80;;;;;;220256;1270;25360;-49
2022/06/10 18:50:57;;;;;;;13.70;2.70;;;25.50;48.50;;;;;;219948;1270;23182;-49
2022/06/10 18:56:09;;;;;;;8.20;2.20;;;25.60;50.60;;;;;;220127;1270;24313;-49
2022/06/10 19:01:26;;;;;;;7.80;2.20;;;25.50;49.70;;;;;;220085;1270;24391;-51
2022/06/10 19:06:37;;;;;;;7.60;2.40;;;25.60;50.20;;;;;;219914;1271;24107;-49
2022/06/10 19:11:43;;;;;;;17.50;3.70;;;25.50;49.80;;;;;;220070;1271;22540;-51
2022/06/10 19:16:51;;;;;;;15.00;3.00;;;25.60;50.00;;;;;;220104;1270;22703;-53
2022/06/10 19:22:00;;;;;;;17.80;3.10;;;25.60;50.60;;;;;;219751;1270;22569;-55
2022/06/10 19:27:04;;;;;;;8.00;1.80;;;25.60;51.20;;;;;;219768;1270;24316;-53
2022/06/10 19:32:07;;;;;;;12.90;2.60;;;25.60;50.30;;;;;;219934;1270;24162;-53
2022/06/10 19:37:35;;;;;;;8.90;2.30;;;25.70;50.40;;;;;;219869;1270;25275;-53
2022/06/10 19:42:47;;;;;;;13.00;2.90;;;25.70;51.30;;;;;;219726;1271;24406;-53
2022/06/10 19:48:03;;;;;;;11.90;3.20;;;25.70;51.00;;;;;;219788;1270;25256;-53
2022/06/10 19:53:19;;;;;;;10.10;2.50;;;25.60;51.40;;;;;;219666;1270;22542;-52
2022/06/10 19:58:32;;;;;;;9.50;3.00;;;25.70;51.30;;;;;;219924;1270;22560;-55
2022/06/10 20:03:59;;;;;;;16.60;2.80;;;25.70;51.60;;;;;;219908;1270;23954;-51
2022/06/10 20:09:24;;;;;;;11.80;2.70;;;25.70;52.40;;;;;;219719;1274;25542;-53
2022/06/10 20:14:48;;;;;;;7.10;2.40;;;25.70;51.60;;;;;;219710;1273;24748;-58
2022/06/10 20:19:57;;;;;;;10.30;2.80;;;25.60;51.40;;;;;;219614;1273;24388;-53
2022/06/10 20:25:03;;;;;;;13.40;2.90;;;25.60;51.30;;;;;;219613;1273;22698;-53
2022/06/10 20:30:20;;;;;;;13.30;3.40;;;25.60;51.50;;;;;;219925;1271;22526;-48
2022/06/10 20:35:30;;;;;;;17.60;3.30;;;25.60;51.60;;;;;;219971;1271;26506;-53
2022/06/10 20:40:35;;;;;;;23.00;4.70;;;25.60;52.40;;;;;;220077;1270;22549;-51
2022/06/10 20:45:49;;;;;;;17.80;3.70;;;25.60;52.30;;;;;;220014;1271;24872;-51
2022/06/10 20:50:57;;;;;;;17.00;3.30;;;25.70;53.50;;;;;;219972;1270;24407;-51
2022/06/10 20:56:11;;;;;;;15.30;3.60;;;25.50;53.30;;;;;;219886;1270;22582;-51
2022/06/10 21:01:44;;;;;;;12.90;3.50;;;25.60;53.40;;;;;;219695;1270;23957;-51
2022/06/10 21:07:39;;;;;;;9.90;3.00;;;25.50;52.90;;;;;;219661;1270;22682;-52
2022/06/10 21:12:19;;;;;;;18.60;4.40;;;25.50;53.30;;;;;;219618;1271;22537;-48
2022/06/10 21:17:39;;;;;;;11.50;3.70;;;25.50;53.50;;;;;;219962;1270;24723;-51
2022/06/10 21:22:47;;;;;;;10.70;3.90;;;25.40;53.50;;;;;;219788;1271;24240;-49
2022/06/10 21:27:57;;;;;;;11.80;4.40;;;25.40;53.70;;;;;;219968;1270;26718;-52
2022/06/10 21:33:18;;;;;;;7.90;3.30;;;25.40;53.40;;;;;;219657;1271;22797;-51
2022/06/10 21:38:25;;;;;;;11.80;3.20;;;25.40;53.90;;;;;;219610;1271;24195;-51
2022/06/10 21:48:50;;;;;;;12.20;3.40;;;25.40;54.00;;;;;;220052;1272;24334;-49
2022/06/10 21:53:57;;;;;;;11.30;3.50;;;25.30;54.00;;;;;;219980;1272;25224;-50
2022/06/10 21:59:16;;;;;;;10.10;3.40;;;25.30;54.10;;;;;;219979;1271;22587;-49
2022/06/10 22:04:40;;;;;;;8.60;2.90;;;25.30;54.20;;;;;;219836;1271;22717;-49
2022/06/10 22:09:53;;;;;;;7.40;3.10;;;25.30;54.30;;;;;;220148;1271;22560;-48
2022/06/10 22:15:02;;;;;;;8.00;3.40;;;25.30;54.30;;;;;;220253;1271;22543;-53
2022/06/10 22:20:14;;;;;;;7.20;3.10;;;25.20;54.30;;;;;;219891;1271;22551;-51
2022/06/10 22:25:30;;;;;;;7.60;2.90;;;25.20;54.40;;;;;;220165;1271;24437;-49
2022/06/10 22:30:38;;;;;;;7.90;3.80;;;25.20;54.50;;;;;;220071;1272;22551;-48
2022/06/10 22:36:02;;;;;;;9.50;3.20;;;25.20;54.50;;;;;;220136;1273;22584;-48
2022/06/10 22:41:24;;;;;;;9.10;3.20;;;25.10;54.50;;;;;;220078;1271;23575;-49
2022/06/10 22:46:35;;;;;;;5.00;2.60;;;25.20;54.60;;;;;;220168;1270;22563;-53
2022/06/10 22:52:05;;;;;;;5.90;2.90;;;25.20;54.70;;;;;;220320;1270;24340;-49
2022/06/10 22:57:52;;;;;;;10.40;3.50;;;25.10;54.60;;;;;;219948;1271;22653;-51
2022/06/10 23:03:21;;;;;;;9.70;3.20;;;25.10;54.70;;;;;;219962;1272;24396;-51
2022/06/10 23:14:21;;;;;;;7.30;3.10;;;25.00;54.80;;;;;;220061;1273;24375;-49
2022/06/10 23:19:34;;;;;;;6.60;3.30;;;25.00;54.80;;;;;;220020;1272;24547;-52
2022/06/10 23:24:40;;;;;;;6.00;2.70;;;25.00;55.00;;;;;;220155;1271;22592;-50
2022/06/10 23:30:08;;;;;;;4.90;2.70;;;25.00;55.00;;;;;;220164;1271;22620;-53
2022/06/10 23:35:24;;;;;;;5.30;2.60;;;25.00;55.10;;;;;;220126;1274;24297;-50
2022/06/10 23:40:33;;;;;;;4.60;2.40;;;25.00;55.10;;;;;;220086;1271;25450;-51
2022/06/10 23:51:00;;;;;;;6.30;2.60;;;24.90;55.20;;;;;;219951;1271;24272;-48
2022/06/10 23:56:15;;;;;;;7.00;2.70;;;24.90;55.70;;;;;;220124;1271;24332;-49
